sensor_id;sensor_type;location;lat;lon;timestamp;pressure;altitude;pressure_sealevel;temperature;humidity
26859;BME280;14429;48.346;16.338;2023-04-01T00:00:57;98322.72;;;12.64;53.53
26859;BME280;14429;48.346;16.338;2023-04-01T00:03:24;98338.22;;;12.60;53.52
26859;BME280;14429;48.346;16.338;2023-04-01T00:05:49;98335.38;;;12.62;54.35
26859;BME280;14429;48.346;16.338;2023-04-01T00:08:15;98345.78;;;12.65;53.68
26859;BME280;14429;48.346;16.338;2023-04-01T00:10:42;98337.06;;;12.63;54.15
26859;BME280;14429;48.346;16.338;2023-04-01T00:13:09;98350.22;;;12.73;53.40
26859;BME280;14429;48.346;16.338;2023-04-01T00:15:34;98354.88;;;12.71;53.28
26859;BME280;14429;48.346;16.338;2023-04-01T00:18:00;98365.84;;;12.78;53.21
26859;BME280;14429;48.346;16.338;2023-04-01T00:20:25;98376.13;;;12.73;53.85
26859;BME280;14429;48.346;16.338;2023-04-01T00:22:51;98372.38;;;12.66;53.41
26859;BME280;14429;48.346;16.338;2023-04-01T00:25:17;98379.78;;;12.72;53.34
26859;BME280;14429;48.346;16.338;2023-04-01T00:27:42;98377.31;;;12.61;54.15
26859;BME280;14429;48.346;16.338;2023-04-01T00:30:10;98374.50;;;12.63;54.06
26859;BME280;14429;48.346;16.338;2023-04-01T00:32:36;98376.19;;;12.64;53.39
26859;BME280;14429;48.346;16.338;2023-04-01T00:35:02;98377.19;;;12.63;53.55
26859;BME280;14429;48.346;16.338;2023-04-01T00:37:28;98379.53;;;12.65;53.77
26859;BME280;14429;48.346;16.338;2023-04-01T00:39:54;98390.22;;;12.65;53.35
26859;BME280;14429;48.346;16.338;2023-04-01T00:42:20;98380.81;;;12.62;53.63
26859;BME280;14429;48.346;16.338;2023-04-01T00:44:47;98382.97;;;12.58;53.63
26859;BME280;14429;48.346;16.338;2023-04-01T00:47:14;98384.50;;;12.61;53.63
26859;BME280;14429;48.346;16.338;2023-04-01T00:49:43;98375.81;;;12.59;53.58
26859;BME280;14429;48.346;16.338;2023-04-01T00:52:12;98373.13;;;12.59;53.92
26859;BME280;14429;48.346;16.338;2023-04-01T00:54:41;98360.72;;;12.58;53.59
26859;BME280;14429;48.346;16.338;2023-04-01T00:57:12;98359.91;;;12.57;53.52
26859;BME280;14429;48.346;16.338;2023-04-01T00:59:42;98363.81;;;12.63;53.57
26859;BME280;14429;48.346;16.338;2023-04-01T01:02:10;98354.72;;;12.56;53.54
26859;BME280;14429;48.346;16.338;2023-04-01T01:04:38;98348.38;;;12.57;55.09
26859;BME280;14429;48.346;16.338;2023-04-01T01:07:14;98347.78;;;12.63;53.29
26859;BME280;14429;48.346;16.338;2023-04-01T01:09:50;98352.41;;;12.61;54.60
26859;BME280;14429;48.346;16.338;2023-04-01T01:12:21;98348.38;;;12.57;54.29
26859;BME280;14429;48.346;16.338;2023-04-01T01:14:55;98338.25;;;12.51;54.46
26859;BME280;14429;48.346;16.338;2023-04-01T01:17:32;98340.50;;;12.55;54.58
26859;BME280;14429;48.346;16.338;2023-04-01T01:20:39;98326.69;;;12.60;53.72
26859;BME280;14429;48.346;16.338;2023-04-01T01:23:23;98321.25;;;12.52;55.16
26859;BME280;14429;48.346;16.338;2023-04-01T01:26:08;98312.59;;;12.58;53.77
26859;BME280;14429;48.346;16.338;2023-04-01T01:28:44;98315.44;;;12.56;53.58
26859;BME280;14429;48.346;16.338;2023-04-01T01:31:20;98306.19;;;12.51;53.87
26859;BME280;14429;48.346;16.338;2023-04-01T01:34:00;98305.88;;;12.54;53.94
26859;BME280;14429;48.346;16.338;2023-04-01T01:36:31;98296.84;;;12.55;53.84
26859;BME280;14429;48.346;16.338;2023-04-01T01:38:57;98314.59;;;12.56;53.72
26859;BME280;14429;48.346;16.338;2023-04-01T01:41:25;98309.84;;;12.50;53.86
26859;BME280;14429;48.346;16.338;2023-04-01T01:43:53;98297.78;;;12.46;54.06
26859;BME280;14429;48.346;16.338;2023-04-01T01:46:23;98305.59;;;12.57;53.73
26859;BME280;14429;48.346;16.338;2023-04-01T01:48:49;98302.22;;;12.55;53.63
26859;BME280;14429;48.346;16.338;2023-04-01T01:51:17;98308.84;;;12.51;53.84
26859;BME280;14429;48.346;16.338;2023-04-01T01:53:44;98303.38;;;12.52;53.85
26859;BME280;14429;48.346;16.338;2023-04-01T01:56:10;98306.88;;;12.53;54.15
26859;BME280;14429;48.346;16.338;2023-04-01T01:58:37;98303.38;;;12.52;53.74
26859;BME280;14429;48.346;16.338;2023-04-01T02:01:06;98311.22;;;12.54;53.81
26859;BME280;14429;48.346;16.338;2023-04-01T02:03:34;98310.56;;;12.52;54.18
26859;BME280;14429;48.346;16.338;2023-04-01T02:06:03;98303.44;;;12.43;55.08
26859;BME280;14429;48.346;16.338;2023-04-01T02:08:33;98309.56;;;12.53;54.07
26859;BME280;14429;48.346;16.338;2023-04-01T02:11:06;98305.41;;;12.58;53.99
26859;BME280;14429;48.346;16.338;2023-04-01T02:13:36;98313.06;;;12.53;53.65
26859;BME280;14429;48.346;16.338;2023-04-01T02:16:08;98302.84;;;12.49;54.07
26859;BME280;14429;48.346;16.338;2023-04-01T02:18:36;98318.25;;;12.55;53.61
26859;BME280;14429;48.346;16.338;2023-04-01T02:21:03;98318.94;;;12.57;53.98
26859;BME280;14429;48.346;16.338;2023-04-01T02:23:30;98306.97;;;12.61;53.54
26859;BME280;14429;48.346;16.338;2023-04-01T02:25:58;98322.72;;;12.64;53.34
26859;BME280;14429;48.346;16.338;2023-04-01T02:28:25;98312.00;;;12.64;53.48
26859;BME280;14429;48.346;16.338;2023-04-01T02:30:52;98311.00;;;12.65;53.34
26859;BME280;14429;48.346;16.338;2023-04-01T02:33:18;98314.31;;;12.59;53.79
26859;BME280;14429;48.346;16.338;2023-04-01T02:35:44;98308.63;;;12.62;53.41
26859;BME280;14429;48.346;16.338;2023-04-01T02:38:10;98307.56;;;12.55;53.85
26859;BME280;14429;48.346;16.338;2023-04-01T02:40:46;98296.56;;;12.58;53.49
26859;BME280;14429;48.346;16.338;2023-04-01T02:43:12;98316.56;;;12.54;53.65
26859;BME280;14429;48.346;16.338;2023-04-01T02:45:39;98315.38;;;12.48;55.40
26859;BME280;14429;48.346;16.338;2023-04-01T02:48:04;98309.38;;;12.54;53.95
26859;BME280;14429;48.346;16.338;2023-04-01T02:50:30;98313.22;;;12.52;55.10
26859;BME280;14429;48.346;16.338;2023-04-01T02:52:55;98313.91;;;12.54;53.48
26859;BME280;14429;48.346;16.338;2023-04-01T02:55:21;98317.75;;;12.51;54.83
26859;BME280;14429;48.346;16.338;2023-04-01T02:57:46;98322.22;;;12.51;55.47
26859;BME280;14429;48.346;16.338;2023-04-01T03:00:13;98339.41;;;12.48;54.68
26859;BME280;14429;48.346;16.338;2023-04-01T03:02:40;98336.00;;;12.56;53.69
26859;BME280;14429;48.346;16.338;2023-04-01T03:05:06;98336.00;;;12.56;53.72
26859;BME280;14429;48.346;16.338;2023-04-01T03:07:32;98338.25;;;12.51;55.71
26859;BME280;14429;48.346;16.338;2023-04-01T03:09:57;98339.34;;;12.58;54.15
26859;BME280;14429;48.346;16.338;2023-04-01T03:12:23;98335.06;;;12.65;53.29
26859;BME280;14429;48.346;16.338;2023-04-01T03:14:48;98327.94;;;12.38;58.94
26859;BME280;14429;48.346;16.338;2023-04-01T03:17:15;98331.94;;;12.52;54.40
26859;BME280;14429;48.346;16.338;2023-04-01T03:19:41;98321.34;;;12.60;54.12
26859;BME280;14429;48.346;16.338;2023-04-01T03:22:07;98325.22;;;12.65;53.27
26859;BME280;14429;48.346;16.338;2023-04-01T03:24:33;98331.72;;;12.63;53.57
26859;BME280;14429;48.346;16.338;2023-04-01T03:26:58;98329.72;;;12.65;53.55
26859;BME280;14429;48.346;16.338;2023-04-01T03:29:24;98313.97;;;12.62;53.18
26859;BME280;14429;48.346;16.338;2023-04-01T03:31:49;98316.28;;;12.57;53.49
26859;BME280;14429;48.346;16.338;2023-04-01T03:34:15;98311.53;;;12.51;53.84
26859;BME280;14429;48.346;16.338;2023-04-01T03:36:41;98309.84;;;12.50;53.70
26859;BME280;14429;48.346;16.338;2023-04-01T03:39:07;98314.91;;;12.53;53.62
26859;BME280;14429;48.346;16.338;2023-04-01T03:41:34;98308.72;;;12.52;53.84
26859;BME280;14429;48.346;16.338;2023-04-01T03:44:00;98326.19;;;12.47;53.82
26859;BME280;14429;48.346;16.338;2023-04-01T03:46:25;98320.28;;;12.43;53.99
26859;BME280;14429;48.346;16.338;2023-04-01T03:48:51;98315.19;;;12.50;53.63
26859;BME280;14429;48.346;16.338;2023-04-01T03:51:16;98322.53;;;12.48;53.86
26859;BME280;14429;48.346;16.338;2023-04-01T03:53:43;98321.47;;;12.41;54.58
26859;BME280;14429;48.346;16.338;2023-04-01T03:56:09;98320.38;;;12.34;54.79
26859;BME280;14429;48.346;16.338;2023-04-01T03:58:35;98307.81;;;12.44;54.11
26859;BME280;14429;48.346;16.338;2023-04-01T04:01:00;98314.53;;;12.48;53.99
26859;BME280;14429;48.346;16.338;2023-04-01T04:03:26;98301.50;;;12.36;54.55
26859;BME280;14429;48.346;16.338;2023-04-01T04:05:51;98310.78;;;12.41;54.17
26859;BME280;14429;48.346;16.338;2023-04-01T04:08:17;98307.81;;;12.44;54.46
26859;BME280;14429;48.346;16.338;2023-04-01T04:10:44;98300.16;;;12.49;53.79
26859;BME280;14429;48.346;16.338;2023-04-01T04:13:09;98306.19;;;12.51;53.78
26859;BME280;14429;48.346;16.338;2023-04-01T04:15:35;98313.53;;;12.49;53.96
26859;BME280;14429;48.346;16.338;2023-04-01T04:18:00;98312.53;;;12.50;53.74
26859;BME280;14429;48.346;16.338;2023-04-01T04:20:26;98317.53;;;12.36;54.62
26859;BME280;14429;48.346;16.338;2023-04-01T04:22:51;98314.44;;;12.40;54.04
26859;BME280;14429;48.346;16.338;2023-04-01T04:25:17;98323.59;;;12.38;54.23
26859;BME280;14429;48.346;16.338;2023-04-01T04:27:43;98319.91;;;12.38;54.24
26859;BME280;14429;48.346;16.338;2023-04-01T04:30:09;98320.91;;;12.38;54.20
26859;BME280;14429;48.346;16.338;2023-04-01T04:32:35;98317.19;;;12.48;53.72
26859;BME280;14429;48.346;16.338;2023-04-01T04:35:00;98318.03;;;12.48;53.68
26859;BME280;14429;48.346;16.338;2023-04-01T04:37:26;98319.09;;;12.38;54.35
26859;BME280;14429;48.346;16.338;2023-04-01T04:39:51;98326.19;;;12.47;53.82
26859;BME280;14429;48.346;16.338;2023-04-01T04:42:17;98325.97;;;12.40;54.29
26859;BME280;14429;48.346;16.338;2023-04-01T04:44:44;98325.63;;;12.43;53.85
26859;BME280;14429;48.346;16.338;2023-04-01T04:47:09;98324.81;;;12.43;54.09
26859;BME280;14429;48.346;16.338;2023-04-01T04:49:34;98315.19;;;12.50;53.65
26859;BME280;14429;48.346;16.338;2023-04-01T04:52:00;98327.63;;;12.41;54.20
26859;BME280;14429;48.346;16.338;2023-04-01T04:54:25;98330.16;;;12.43;53.86
26859;BME280;14429;48.346;16.338;2023-04-01T04:56:51;98340.25;;;12.49;53.64
26859;BME280;14429;48.346;16.338;2023-04-01T04:59:17;98332.63;;;12.54;53.48
26859;BME280;14429;48.346;16.338;2023-04-01T05:01:43;98335.28;;;12.54;53.47
26859;BME280;14429;48.346;16.338;2023-04-01T05:04:09;98329.28;;;12.52;53.57
26859;BME280;14429;48.346;16.338;2023-04-01T05:06:34;98332.53;;;12.46;53.80
26859;BME280;14429;48.346;16.338;2023-04-01T05:09:00;98330.47;;;12.40;54.05
26859;BME280;14429;48.346;16.338;2023-04-01T05:11:25;98336.88;;;12.47;53.67
26859;BME280;14429;48.346;16.338;2023-04-01T05:13:50;98324.50;;;12.46;53.76
26859;BME280;14429;48.346;16.338;2023-04-01T05:16:18;98318.63;;;12.42;53.91
26859;BME280;14429;48.346;16.338;2023-04-01T05:18:45;98337.19;;;12.44;53.98
26859;BME280;14429;48.346;16.338;2023-04-01T05:21:12;98325.22;;;12.48;54.17
26859;BME280;14429;48.346;16.338;2023-04-01T05:23:39;98330.41;;;12.49;53.56
26859;BME280;14429;48.346;16.338;2023-04-01T05:26:05;98333.44;;;12.37;53.75
26859;BME280;14429;48.346;16.338;2023-04-01T05:28:31;98330.16;;;12.43;53.94
26859;BME280;14429;48.346;16.338;2023-04-01T05:30:58;98325.44;;;12.37;54.75
26859;BME280;14429;48.346;16.338;2023-04-01T05:33:23;98326.81;;;12.41;55.03
26859;BME280;14429;48.346;16.338;2023-04-01T05:35:50;98327.09;;;12.38;54.45
26859;BME280;14429;48.346;16.338;2023-04-01T05:38:15;98332.44;;;12.38;54.20
26859;BME280;14429;48.346;16.338;2023-04-01T05:40:41;98329.59;;;12.39;55.67
26859;BME280;14429;48.346;16.338;2023-04-01T05:43:06;98335.81;;;12.40;54.56
26859;BME280;14429;48.346;16.338;2023-04-01T05:45:32;98342.31;;;12.38;53.93
26859;BME280;14429;48.346;16.338;2023-04-01T05:47:58;98349.88;;;12.42;54.21
26859;BME280;14429;48.346;16.338;2023-04-01T05:50:24;98346.91;;;12.45;53.83
26859;BME280;14429;48.346;16.338;2023-04-01T05:52:50;98353.63;;;12.49;53.79
26859;BME280;14429;48.346;16.338;2023-04-01T05:55:16;98357.97;;;12.50;53.96
26859;BME280;14429;48.346;16.338;2023-04-01T05:57:42;98353.34;;;12.52;53.54
26859;BME280;14429;48.346;16.338;2023-04-01T06:00:08;98353.88;;;12.55;53.85
26859;BME280;14429;48.346;16.338;2023-04-01T06:02:33;98355.22;;;12.42;54.04
26859;BME280;14429;48.346;16.338;2023-04-01T06:05:03;98354.91;;;12.45;54.46
26859;BME280;14429;48.346;16.338;2023-04-01T06:07:34;98359.56;;;12.43;53.98
26859;BME280;14429;48.346;16.338;2023-04-01T06:10:01;98367.44;;;12.44;53.77
26859;BME280;14429;48.346;16.338;2023-04-01T06:12:44;98366.00;;;12.50;53.83
26859;BME280;14429;48.346;16.338;2023-04-01T06:15:18;98365.00;;;12.51;54.70
26859;BME280;14429;48.346;16.338;2023-04-01T06:20:54;98376.03;;;12.38;53.80
26859;BME280;14429;48.346;16.338;2023-04-01T06:23:41;98374.31;;;12.47;53.59
26859;BME280;14429;48.346;16.338;2023-04-01T06:26:20;98385.53;;;12.50;54.49
26859;BME280;14429;48.346;16.338;2023-04-01T06:29:18;98372.72;;;12.80;54.34
26859;BME280;14429;48.346;16.338;2023-04-01T06:32:09;98379.44;;;12.84;53.28
26859;BME280;14429;48.346;16.338;2023-04-01T06:35:02;98389.78;;;12.96;52.94
26859;BME280;14429;48.346;16.338;2023-04-01T06:37:52;98378.84;;;12.90;53.37
26859;BME280;14429;48.346;16.338;2023-04-01T06:40:37;98398.44;;;13.08;53.01
26859;BME280;14429;48.346;16.338;2023-04-01T06:43:12;98389.03;;;13.04;52.90
26859;BME280;14429;48.346;16.338;2023-04-01T06:45:46;98395.84;;;13.16;52.63
26859;BME280;14429;48.346;16.338;2023-04-01T06:48:31;98394.59;;;12.93;53.16
26859;BME280;14429;48.346;16.338;2023-04-01T06:51:11;98389.25;;;12.93;53.09
26859;BME280;14429;48.346;16.338;2023-04-01T06:53:48;98392.31;;;12.98;52.91
26859;BME280;14429;48.346;16.338;2023-04-01T06:56:21;98387.72;;;13.25;53.92
26859;BME280;14429;48.346;16.338;2023-04-01T06:58:53;98388.00;;;13.39;53.76
26859;BME280;14429;48.346;16.338;2023-04-01T07:01:22;98390.47;;;13.16;52.69
26859;BME280;14429;48.346;16.338;2023-04-01T07:03:53;98380.47;;;13.00;52.71
26859;BME280;14429;48.346;16.338;2023-04-01T07:06:25;98404.38;;;13.02;52.82
26859;BME280;14429;48.346;16.338;2023-04-01T07:08:53;98388.78;;;13.32;53.38
26859;BME280;14429;48.346;16.338;2023-04-01T07:11:25;98393.53;;;13.20;52.25
26859;BME280;14429;48.346;16.338;2023-04-01T07:13:55;98395.44;;;13.28;52.16
26859;BME280;14429;48.346;16.338;2023-04-01T07:16:27;98405.91;;;13.21;52.65
26859;BME280;14429;48.346;16.338;2023-04-01T07:18:59;98387.81;;;13.58;52.66
26859;BME280;14429;48.346;16.338;2023-04-01T07:21:28;98402.41;;;13.38;52.06
26859;BME280;14429;48.346;16.338;2023-04-01T07:23:59;98400.66;;;13.29;52.00
26859;BME280;14429;48.346;16.338;2023-04-01T07:26:26;98401.31;;;13.14;52.64
26859;BME280;14429;48.346;16.338;2023-04-01T07:28:54;98405.84;;;13.31;52.32
26859;BME280;14429;48.346;16.338;2023-04-01T07:31:27;98404.31;;;13.11;52.66
26859;BME280;14429;48.346;16.338;2023-04-01T07:34:02;98409.75;;;13.19;52.50
26859;BME280;14429;48.346;16.338;2023-04-01T07:36:38;98412.03;;;13.31;52.27
26859;BME280;14429;48.346;16.338;2023-04-01T07:39:10;98408.44;;;13.23;52.27
26859;BME280;14429;48.346;16.338;2023-04-01T07:41:48;98422.97;;;13.20;52.38
26859;BME280;14429;48.346;16.338;2023-04-01T07:44:24;98418.91;;;13.17;52.60
26859;BME280;14429;48.346;16.338;2023-04-01T07:47:11;98408.66;;;13.12;52.61
26859;BME280;14429;48.346;16.338;2023-04-01T07:49:49;98413.56;;;13.17;52.56
26859;BME280;14429;48.346;16.338;2023-04-01T07:52:21;98403.63;;;13.26;52.26
26859;BME280;14429;48.346;16.338;2023-04-01T07:54:55;98412.28;;;13.63;53.84
26859;BME280;14429;48.346;16.338;2023-04-01T07:57:27;98406.16;;;13.28;52.24
26859;BME280;14429;48.346;16.338;2023-04-01T08:00:00;98406.81;;;13.47;51.93
26859;BME280;14429;48.346;16.338;2023-04-01T08:02:35;98412.25;;;13.38;52.07
26859;BME280;14429;48.346;16.338;2023-04-01T08:05:14;98409.88;;;13.52;51.97
26859;BME280;14429;48.346;16.338;2023-04-01T08:07:50;98410.00;;;13.68;54.45
26859;BME280;14429;48.346;16.338;2023-04-01T08:10:21;98406.69;;;13.31;52.18
26859;BME280;14429;48.346;16.338;2023-04-01T08:12:55;98416.16;;;13.43;52.08
26859;BME280;14429;48.346;16.338;2023-04-01T08:15:28;98414.84;;;13.64;51.94
26859;BME280;14429;48.346;16.338;2023-04-01T08:18:06;98422.03;;;13.47;52.00
26859;BME280;14429;48.346;16.338;2023-04-01T08:20:38;98416.09;;;13.35;52.71
26859;BME280;14429;48.346;16.338;2023-04-01T08:23:11;98428.03;;;13.23;52.41
26859;BME280;14429;48.346;16.338;2023-04-01T08:25:40;98417.69;;;13.28;53.14
26859;BME280;14429;48.346;16.338;2023-04-01T08:28:15;98431.06;;;13.28;52.36
26859;BME280;14429;48.346;16.338;2023-04-01T08:30:48;98433.91;;;13.27;52.36
26859;BME280;14429;48.346;16.338;2023-04-01T08:33:17;98436.66;;;13.18;52.54
26859;BME280;14429;48.346;16.338;2023-04-01T08:35:47;98441.69;;;13.20;53.01
26859;BME280;14429;48.346;16.338;2023-04-01T08:38:18;98434.97;;;13.17;52.71
26859;BME280;14429;48.346;16.338;2023-04-01T08:41:15;98430.25;;;13.11;52.82
26859;BME280;14429;48.346;16.338;2023-04-01T08:44:04;98430.00;;;13.21;52.73
26859;BME280;14429;48.346;16.338;2023-04-01T08:47:03;98435.19;;;13.40;52.52
26859;BME280;14429;48.346;16.338;2023-04-01T08:49:47;98430.25;;;13.45;52.91
26859;BME280;14429;48.346;16.338;2023-04-01T08:52:29;98427.47;;;13.54;51.89
26859;BME280;14429;48.346;16.338;2023-04-01T08:55:21;98433.75;;;13.28;52.94
26859;BME280;14429;48.346;16.338;2023-04-01T08:57:59;98434.22;;;13.41;52.35
26859;BME280;14429;48.346;16.338;2023-04-01T09:00:31;98424.75;;;13.29;52.21
26859;BME280;14429;48.346;16.338;2023-04-01T09:06:28;98438.50;;;13.34;52.42
26859;BME280;14429;48.346;16.338;2023-04-01T09:09:09;98438.72;;;13.23;52.47
26859;BME280;14429;48.346;16.338;2023-04-01T09:11:50;98418.75;;;13.35;52.53
26859;BME280;14429;48.346;16.338;2023-04-01T09:17:43;98418.84;;;13.26;52.96
26859;BME280;14429;48.346;16.338;2023-04-01T09:20:30;98427.34;;;13.81;50.65
26859;BME280;14429;48.346;16.338;2023-04-01T09:23:15;98425.94;;;13.52;51.37
26859;BME280;14429;48.346;16.338;2023-04-01T09:25:53;98423.19;;;13.44;51.70
26859;BME280;14429;48.346;16.338;2023-04-01T09:28:28;98441.66;;;13.30;52.21
26859;BME280;14429;48.346;16.338;2023-04-01T09:31:21;98440.47;;;13.32;51.68
26859;BME280;14429;48.346;16.338;2023-04-01T09:34:30;98449.59;;;13.22;52.14
26859;BME280;14429;48.346;16.338;2023-04-01T09:37:17;98437.72;;;13.24;52.09
26859;BME280;14429;48.346;16.338;2023-04-01T09:39:54;98443.31;;;13.31;52.16
26859;BME280;14429;48.346;16.338;2023-04-01T09:42:39;98462.53;;;13.26;52.13
26859;BME280;14429;48.346;16.338;2023-04-01T09:45:09;98458.69;;;13.12;52.71
26859;BME280;14429;48.346;16.338;2023-04-01T09:47:55;98455.09;;;13.20;51.96
26859;BME280;14429;48.346;16.338;2023-04-01T09:50:31;98454.00;;;13.14;52.43
26859;BME280;14429;48.346;16.338;2023-04-01T09:53:07;98450.09;;;13.25;52.03
26859;BME280;14429;48.346;16.338;2023-04-01T09:56:03;98459.44;;;13.21;52.19
26859;BME280;14429;48.346;16.338;2023-04-01T10:02:07;98450.09;;;13.25;52.03
26859;BME280;14429;48.346;16.338;2023-04-01T10:05:04;98460.78;;;13.52;50.30
26859;BME280;14429;48.346;16.338;2023-04-01T10:08:11;98454.63;;;13.08;52.57
26859;BME280;14429;48.346;16.338;2023-04-01T10:17:27;98455.25;;;13.53;50.51
26859;BME280;14429;48.346;16.338;2023-04-01T10:20:36;98454.03;;;13.48;51.27
26859;BME280;14429;48.346;16.338;2023-04-01T10:23:14;98446.00;;;13.48;51.05
26859;BME280;14429;48.346;16.338;2023-04-01T10:31:56;98446.31;;;13.45;51.03
26859;BME280;14429;48.346;16.338;2023-04-01T10:34:54;98454.41;;;13.36;51.20
26859;BME280;14429;48.346;16.338;2023-04-01T10:37:34;98443.16;;;13.49;50.98
26859;BME280;14429;48.346;16.338;2023-04-01T10:40:35;98438.88;;;13.39;51.36
26859;BME280;14429;48.346;16.338;2023-04-01T10:43:36;98445.00;;;13.49;50.29
26859;BME280;14429;48.346;16.338;2023-04-01T10:46:46;98446.81;;;13.66;48.85
26859;BME280;14429;48.346;16.338;2023-04-01T10:50:04;98453.34;;;13.46;50.84
26859;BME280;14429;48.346;16.338;2023-04-01T11:08:06;98447.38;;;13.52;50.90
26859;BME280;14429;48.346;16.338;2023-04-01T11:14:16;98444.22;;;13.39;51.05
26859;BME280;14429;48.346;16.338;2023-04-01T11:20:09;98441.25;;;13.84;47.49
26859;BME280;14429;48.346;16.338;2023-04-01T11:23:02;98430.97;;;13.55;50.60
26859;BME280;14429;48.346;16.338;2023-04-01T11:26:00;98439.34;;;13.52;50.68
26859;BME280;14429;48.346;16.338;2023-04-01T11:29:01;98445.84;;;13.49;50.96
26859;BME280;14429;48.346;16.338;2023-04-01T11:31:36;98435.44;;;13.64;49.54
26859;BME280;14429;48.346;16.338;2023-04-01T11:34:14;98437.97;;;13.48;50.88
26859;BME280;14429;48.346;16.338;2023-04-01T11:36:50;98434.13;;;13.50;50.59
26859;BME280;14429;48.346;16.338;2023-04-01T11:39:24;98439.56;;;13.41;51.09
26859;BME280;14429;48.346;16.338;2023-04-01T11:41:58;98445.53;;;13.35;51.34
26859;BME280;14429;48.346;16.338;2023-04-01T11:44:27;98436.97;;;13.49;50.85
26859;BME280;14429;48.346;16.338;2023-04-01T11:47:08;98437.28;;;13.46;51.03
26859;BME280;14429;48.346;16.338;2023-04-01T11:49:51;98431.69;;;13.40;51.04
26859;BME280;14429;48.346;16.338;2023-04-01T11:52:32;98428.00;;;13.58;50.38
26859;BME280;14429;48.346;16.338;2023-04-01T11:55:14;98431.50;;;13.58;50.54
26859;BME280;14429;48.346;16.338;2023-04-01T12:01:04;98430.78;;;13.73;50.16
26859;BME280;14429;48.346;16.338;2023-04-01T12:03:46;98423.28;;;13.52;50.72
26859;BME280;14429;48.346;16.338;2023-04-01T12:06:16;98428.94;;;13.49;50.68
26859;BME280;14429;48.346;16.338;2023-04-01T12:08:50;98432.69;;;13.56;50.19
26859;BME280;14429;48.346;16.338;2023-04-01T12:11:27;98436.19;;;13.39;51.01
26859;BME280;14429;48.346;16.338;2023-04-01T12:13:59;98430.84;;;13.39;51.23
26859;BME280;14429;48.346;16.338;2023-04-01T12:16:41;98434.06;;;13.60;50.49
26859;BME280;14429;48.346;16.338;2023-04-01T12:19:17;98430.59;;;13.50;51.02
26859;BME280;14429;48.346;16.338;2023-04-01T12:21:52;98417.50;;;14.06;49.04
26859;BME280;14429;48.346;16.338;2023-04-01T12:24:54;98420.53;;;13.86;50.31
26859;BME280;14429;48.346;16.338;2023-04-01T12:27:33;98417.97;;;13.60;50.69
26859;BME280;14429;48.346;16.338;2023-04-01T12:30:14;98426.69;;;13.62;50.81
26859;BME280;14429;48.346;16.338;2023-04-01T12:32:49;98425.63;;;13.55;50.93
26859;BME280;14429;48.346;16.338;2023-04-01T12:35:24;98429.00;;;13.57;50.86
26859;BME280;14429;48.346;16.338;2023-04-01T12:37:59;98430.59;;;13.67;50.51
26859;BME280;14429;48.346;16.338;2023-04-01T12:43:58;98426.69;;;13.62;50.53
26859;BME280;14429;48.346;16.338;2023-04-01T12:46:29;98432.81;;;13.72;50.39
26859;BME280;14429;48.346;16.338;2023-04-01T12:49:26;98437.31;;;13.71;50.48
26859;BME280;14429;48.346;16.338;2023-04-01T12:52:05;98431.59;;;13.91;49.64
26859;BME280;14429;48.346;16.338;2023-04-01T12:55:00;98428.59;;;13.69;50.57
26859;BME280;14429;48.346;16.338;2023-04-01T12:57:45;98427.31;;;13.56;50.87
26859;BME280;14429;48.346;16.338;2023-04-01T13:00:32;98425.00;;;13.61;50.71
26859;BME280;14429;48.346;16.338;2023-04-01T13:03:16;98434.66;;;13.71;50.52
26859;BME280;14429;48.346;16.338;2023-04-01T13:06:20;98432.03;;;13.62;50.71
26859;BME280;14429;48.346;16.338;2023-04-01T13:09:00;98415.38;;;13.68;50.65
26859;BME280;14429;48.346;16.338;2023-04-01T13:11:38;98420.22;;;13.89;49.89
26859;BME280;14429;48.346;16.338;2023-04-01T13:14:26;98423.56;;;13.91;49.88
26859;BME280;14429;48.346;16.338;2023-04-01T13:16:58;98413.47;;;13.60;50.68
26859;BME280;14429;48.346;16.338;2023-04-01T13:19:33;98418.03;;;13.68;50.59
26859;BME280;14429;48.346;16.338;2023-04-01T13:22:05;98401.66;;;13.71;50.72
26859;BME280;14429;48.346;16.338;2023-04-01T13:24:40;98404.25;;;13.63;50.70
26859;BME280;14429;48.346;16.338;2023-04-01T13:27:13;98418.53;;;13.88;50.09
26859;BME280;14429;48.346;16.338;2023-04-01T13:29:44;98416.66;;;14.06;49.59
26859;BME280;14429;48.346;16.338;2023-04-01T13:32:20;98427.88;;;13.84;50.22
26859;BME280;14429;48.346;16.338;2023-04-01T13:34:59;98417.22;;;13.92;50.01
26859;BME280;14429;48.346;16.338;2023-04-01T13:37:35;98413.03;;;14.15;49.27
26859;BME280;14429;48.346;16.338;2023-04-01T13:40:19;98424.81;;;13.79;50.33
26859;BME280;14429;48.346;16.338;2023-04-01T13:42:53;98418.84;;;13.85;50.28
26859;BME280;14429;48.346;16.338;2023-04-01T13:45:24;98407.75;;;14.23;48.97
26859;BME280;14429;48.346;16.338;2023-04-01T13:48:04;98411.63;;;14.28;48.29
26859;BME280;14429;48.346;16.338;2023-04-01T13:50:50;98414.03;;;14.14;49.34
26859;BME280;14429;48.346;16.338;2023-04-01T13:53:57;98411.31;;;14.06;49.52
26859;BME280;14429;48.346;16.338;2023-04-01T13:56:37;98411.50;;;13.87;50.12
26859;BME280;14429;48.346;16.338;2023-04-01T13:59:36;98402.53;;;13.96;49.81
26859;BME280;14429;48.346;16.338;2023-04-01T14:02:24;98414.88;;;13.89;50.04
26859;BME280;14429;48.346;16.338;2023-04-01T14:07:50;98410.50;;;14.38;47.84
26859;BME280;14429;48.346;16.338;2023-04-01T14:10:23;98404.81;;;14.08;49.75
26859;BME280;14429;48.346;16.338;2023-04-01T14:12:58;98394.56;;;14.04;49.58
26859;BME280;14429;48.346;16.338;2023-04-01T14:18:31;98403.31;;;14.14;49.08
26859;BME280;14429;48.346;16.338;2023-04-01T14:21:11;98416.44;;;14.25;48.46
26859;BME280;14429;48.346;16.338;2023-04-01T14:23:50;98409.69;;;14.13;49.39
26859;BME280;14429;48.346;16.338;2023-04-01T14:29:17;98423.41;;;14.10;49.47